sensor_id;sensor_type;location;lat;lon;timestamp;P1;durP1;ratioP1;P2;durP2;ratioP2
31798;SDS011;18374;51.136;3.502;2023-02-11T00:01:24;15.70;;;4.95;;
31798;SDS011;18374;51.136;3.502;2023-02-11T00:04:01;14.27;;;4.53;;
31798;SDS011;18374;51.136;3.502;2023-02-11T00:06:31;13.70;;;4.07;;
31798;SDS011;18374;51.136;3.502;2023-02-11T00:09:00;12.50;;;4.45;;
31798;SDS011;18374;51.136;3.502;2023-02-11T00:11:29;14.65;;;4.50;;
31798;SDS011;18374;51.136;3.502;2023-02-11T00:13:58;16.05;;;4.40;;
31798;SDS011;18374;51.136;3.502;2023-02-11T00:16:30;18.50;;;4.03;;
31798;SDS011;18374;51.136;3.502;2023-02-11T00:18:59;22.05;;;5.25;;
31798;SDS011;18374;51.136;3.502;2023-02-11T00:21:28;15.50;;;4.28;;
31798;SDS011;18374;51.136;3.502;2023-02-11T00:23:56;13.98;;;4.25;;
31798;SDS011;18374;51.136;3.502;2023-02-11T00:26:29;16.35;;;4.70;;
31798;SDS011;18374;51.136;3.502;2023-02-11T00:29:02;17.77;;;4.43;;
31798;SDS011;18374;51.136;3.502;2023-02-11T00:31:31;10.70;;;3.90;;
31798;SDS011;18374;51.136;3.502;2023-02-11T00:33:59;17.27;;;4.85;;
31798;SDS011;18374;51.136;3.502;2023-02-11T00:36:28;12.32;;;3.95;;
31798;SDS011;18374;51.136;3.502;2023-02-11T00:38:56;10.35;;;5.15;;
31798;SDS011;18374;51.136;3.502;2023-02-11T00:41:27;20.25;;;5.50;;
31798;SDS011;18374;51.136;3.502;2023-02-11T00:43:55;14.65;;;4.63;;
31798;SDS011;18374;51.136;3.502;2023-02-11T00:46:23;17.50;;;4.97;;
31798;SDS011;18374;51.136;3.502;2023-02-11T00:48:51;20.38;;;6.03;;
31798;SDS011;18374;51.136;3.502;2023-02-11T00:51:21;15.07;;;4.95;;
31798;SDS011;18374;51.136;3.502;2023-02-11T00:53:49;13.02;;;4.80;;
31798;SDS011;18374;51.136;3.502;2023-02-11T00:56:17;15.20;;;5.10;;
31798;SDS011;18374;51.136;3.502;2023-02-11T00:58:45;15.00;;;5.35;;
31798;SDS011;18374;51.136;3.502;2023-02-11T01:01:13;17.35;;;5.90;;
31798;SDS011;18374;51.136;3.502;2023-02-11T01:03:42;21.88;;;5.55;;
31798;SDS011;18374;51.136;3.502;2023-02-11T01:06:09;15.25;;;5.00;;
31798;SDS011;18374;51.136;3.502;2023-02-11T01:08:38;21.73;;;6.30;;
31798;SDS011;18374;51.136;3.502;2023-02-11T01:11:11;16.55;;;5.22;;
31798;SDS011;18374;51.136;3.502;2023-02-11T01:13:45;12.32;;;5.47;;
31798;SDS011;18374;51.136;3.502;2023-02-11T01:16:14;16.08;;;5.20;;
31798;SDS011;18374;51.136;3.502;2023-02-11T01:18:44;20.55;;;5.57;;
31798;SDS011;18374;51.136;3.502;2023-02-11T01:21:12;16.75;;;6.18;;
31798;SDS011;18374;51.136;3.502;2023-02-11T01:23:42;11.45;;;5.50;;
31798;SDS011;18374;51.136;3.502;2023-02-11T01:26:11;15.18;;;5.63;;
31798;SDS011;18374;51.136;3.502;2023-02-11T01:28:38;12.35;;;5.45;;
31798;SDS011;18374;51.136;3.502;2023-02-11T01:31:06;13.27;;;5.47;;
31798;SDS011;18374;51.136;3.502;2023-02-11T01:33:34;19.08;;;6.70;;
31798;SDS011;18374;51.136;3.502;2023-02-11T01:36:04;19.75;;;5.82;;
31798;SDS011;18374;51.136;3.502;2023-02-11T01:38:33;18.55;;;5.65;;
31798;SDS011;18374;51.136;3.502;2023-02-11T01:41:03;12.23;;;5.60;;
31798;SDS011;18374;51.136;3.502;2023-02-11T01:43:36;14.50;;;5.25;;
31798;SDS011;18374;51.136;3.502;2023-02-11T01:49:09;16.23;;;5.65;;
31798;SDS011;18374;51.136;3.502;2023-02-11T01:51:43;11.30;;;5.93;;
31798;SDS011;18374;51.136;3.502;2023-02-11T01:54:21;22.13;;;5.78;;
31798;SDS011;18374;51.136;3.502;2023-02-11T01:57:13;12.60;;;5.68;;
31798;SDS011;18374;51.136;3.502;2023-02-11T01:59:55;16.35;;;6.22;;
31798;SDS011;18374;51.136;3.502;2023-02-11T02:05:39;17.73;;;7.10;;
31798;SDS011;18374;51.136;3.502;2023-02-11T02:08:52;21.38;;;6.43;;
31798;SDS011;18374;51.136;3.502;2023-02-11T02:11:30;12.63;;;5.80;;
31798;SDS011;18374;51.136;3.502;2023-02-11T02:13:58;18.48;;;6.15;;
31798;SDS011;18374;51.136;3.502;2023-02-11T02:16:29;22.52;;;6.57;;
31798;SDS011;18374;51.136;3.502;2023-02-11T02:21:56;14.82;;;5.88;;
31798;SDS011;18374;51.136;3.502;2023-02-11T02:29:02;13.25;;;5.90;;
31798;SDS011;18374;51.136;3.502;2023-02-11T02:34:41;11.63;;;5.20;;
31798;SDS011;18374;51.136;3.502;2023-02-11T02:37:20;15.98;;;6.65;;
31798;SDS011;18374;51.136;3.502;2023-02-11T02:39:58;15.43;;;6.72;;
31798;SDS011;18374;51.136;3.502;2023-02-11T02:42:33;11.07;;;6.90;;
31798;SDS011;18374;51.136;3.502;2023-02-11T02:45:01;18.55;;;6.85;;
31798;SDS011;18374;51.136;3.502;2023-02-11T02:47:29;11.80;;;6.65;;
31798;SDS011;18374;51.136;3.502;2023-02-11T02:49:56;18.58;;;6.88;;
31798;SDS011;18374;51.136;3.502;2023-02-11T03:03:47;15.50;;;6.80;;
31798;SDS011;18374;51.136;3.502;2023-02-11T03:06:28;12.93;;;6.15;;
31798;SDS011;18374;51.136;3.502;2023-02-11T03:09:23;12.98;;;6.30;;
31798;SDS011;18374;51.136;3.502;2023-02-11T03:14:29;16.00;;;6.20;;
31798;SDS011;18374;51.136;3.502;2023-02-11T03:16:58;12.00;;;5.93;;
31798;SDS011;18374;51.136;3.502;2023-02-11T03:19:31;17.00;;;6.40;;
31798;SDS011;18374;51.136;3.502;2023-02-11T03:22:11;12.52;;;5.97;;
31798;SDS011;18374;51.136;3.502;2023-02-11T03:24:49;12.20;;;6.30;;
31798;SDS011;18374;51.136;3.502;2023-02-11T03:27:20;15.10;;;6.18;;
31798;SDS011;18374;51.136;3.502;2023-02-11T03:32:46;9.60;;;5.80;;
31798;SDS011;18374;51.136;3.502;2023-02-11T03:35:19;14.27;;;6.45;;
31798;SDS011;18374;51.136;3.502;2023-02-11T03:41:08;15.35;;;6.22;;
31798;SDS011;18374;51.136;3.502;2023-02-11T03:43:41;12.27;;;5.95;;
31798;SDS011;18374;51.136;3.502;2023-02-11T03:46:14;11.07;;;6.18;;
31798;SDS011;18374;51.136;3.502;2023-02-11T03:48:47;11.15;;;5.90;;
31798;SDS011;18374;51.136;3.502;2023-02-11T03:51:19;14.23;;;5.78;;
31798;SDS011;18374;51.136;3.502;2023-02-11T03:53:48;11.82;;;5.75;;
31798;SDS011;18374;51.136;3.502;2023-02-11T03:56:19;11.68;;;6.05;;
31798;SDS011;18374;51.136;3.502;2023-02-11T03:58:51;14.20;;;5.95;;
31798;SDS011;18374;51.136;3.502;2023-02-11T04:01:19;12.18;;;5.55;;
31798;SDS011;18374;51.136;3.502;2023-02-11T04:03:47;13.65;;;6.65;;
31798;SDS011;18374;51.136;3.502;2023-02-11T04:06:15;12.15;;;5.85;;
31798;SDS011;18374;51.136;3.502;2023-02-11T04:08:43;10.32;;;5.93;;
31798;SDS011;18374;51.136;3.502;2023-02-11T04:11:10;14.32;;;6.97;;
31798;SDS011;18374;51.136;3.502;2023-02-11T04:13:38;15.02;;;6.88;;
31798;SDS011;18374;51.136;3.502;2023-02-11T04:16:06;19.83;;;7.18;;
31798;SDS011;18374;51.136;3.502;2023-02-11T04:18:34;14.35;;;6.68;;
31798;SDS011;18374;51.136;3.502;2023-02-11T04:21:01;15.07;;;6.28;;
31798;SDS011;18374;51.136;3.502;2023-02-11T04:23:29;14.35;;;5.95;;
31798;SDS011;18374;51.136;3.502;2023-02-11T04:25:57;12.65;;;6.72;;
31798;SDS011;18374;51.136;3.502;2023-02-11T04:28:25;19.85;;;6.97;;
31798;SDS011;18374;51.136;3.502;2023-02-11T04:30:55;16.33;;;7.45;;
31798;SDS011;18374;51.136;3.502;2023-02-11T04:33:23;12.52;;;6.03;;
31798;SDS011;18374;51.136;3.502;2023-02-11T04:35:51;14.60;;;6.25;;
31798;SDS011;18374;51.136;3.502;2023-02-11T04:38:19;14.10;;;7.25;;
31798;SDS011;18374;51.136;3.502;2023-02-11T04:40:50;13.27;;;6.95;;
31798;SDS011;18374;51.136;3.502;2023-02-11T04:43:17;14.73;;;7.20;;
31798;SDS011;18374;51.136;3.502;2023-02-11T04:45:45;15.38;;;6.90;;
31798;SDS011;18374;51.136;3.502;2023-02-11T04:48:13;19.77;;;6.82;;
31798;SDS011;18374;51.136;3.502;2023-02-11T04:50:40;16.58;;;7.50;;
31798;SDS011;18374;51.136;3.502;2023-02-11T04:53:08;15.05;;;7.30;;
31798;SDS011;18374;51.136;3.502;2023-02-11T04:55:35;16.25;;;7.45;;
31798;SDS011;18374;51.136;3.502;2023-02-11T04:58:03;21.40;;;8.48;;
31798;SDS011;18374;51.136;3.502;2023-02-11T05:00:31;21.30;;;8.27;;
31798;SDS011;18374;51.136;3.502;2023-02-11T05:02:59;18.83;;;8.35;;
31798;SDS011;18374;51.136;3.502;2023-02-11T05:05:26;15.57;;;8.07;;
31798;SDS011;18374;51.136;3.502;2023-02-11T05:07:54;18.63;;;8.70;;
31798;SDS011;18374;51.136;3.502;2023-02-11T05:10:22;17.63;;;8.88;;
31798;SDS011;18374;51.136;3.502;2023-02-11T05:12:50;19.02;;;9.65;;
31798;SDS011;18374;51.136;3.502;2023-02-11T05:15:21;24.30;;;9.93;;
31798;SDS011;18374;51.136;3.502;2023-02-11T05:17:49;22.63;;;10.63;;
31798;SDS011;18374;51.136;3.502;2023-02-11T05:20:17;21.05;;;9.38;;
31798;SDS011;18374;51.136;3.502;2023-02-11T05:22:44;22.90;;;10.00;;
31798;SDS011;18374;51.136;3.502;2023-02-11T05:25:13;19.65;;;9.60;;
31798;SDS011;18374;51.136;3.502;2023-02-11T05:27:40;22.65;;;10.05;;
31798;SDS011;18374;51.136;3.502;2023-02-11T05:30:09;23.50;;;10.48;;
31798;SDS011;18374;51.136;3.502;2023-02-11T05:32:37;23.50;;;10.00;;
31798;SDS011;18374;51.136;3.502;2023-02-11T05:35:05;24.55;;;10.50;;
31798;SDS011;18374;51.136;3.502;2023-02-11T05:37:34;23.05;;;9.88;;
31798;SDS011;18374;51.136;3.502;2023-02-11T05:40:02;19.23;;;10.05;;
31798;SDS011;18374;51.136;3.502;2023-02-11T05:42:30;31.35;;;11.13;;
31798;SDS011;18374;51.136;3.502;2023-02-11T05:44:58;26.38;;;10.40;;
31798;SDS011;18374;51.136;3.502;2023-02-11T05:47:26;25.98;;;10.38;;
31798;SDS011;18374;51.136;3.502;2023-02-11T05:49:54;22.73;;;10.88;;
31798;SDS011;18374;51.136;3.502;2023-02-11T05:52:21;22.73;;;10.55;;
31798;SDS011;18374;51.136;3.502;2023-02-11T05:54:50;23.55;;;11.23;;
31798;SDS011;18374;51.136;3.502;2023-02-11T05:57:17;25.98;;;11.60;;
31798;SDS011;18374;51.136;3.502;2023-02-11T05:59:45;21.20;;;11.55;;
31798;SDS011;18374;51.136;3.502;2023-02-11T06:02:13;24.25;;;9.98;;
31798;SDS011;18374;51.136;3.502;2023-02-11T06:04:41;22.45;;;10.63;;
31798;SDS011;18374;51.136;3.502;2023-02-11T06:07:10;27.58;;;11.38;;
31798;SDS011;18374;51.136;3.502;2023-02-11T06:09:37;28.25;;;10.65;;
31798;SDS011;18374;51.136;3.502;2023-02-11T06:12:05;29.20;;;11.25;;
31798;SDS011;18374;51.136;3.502;2023-02-11T06:14:33;24.80;;;11.35;;
31798;SDS011;18374;51.136;3.502;2023-02-11T06:17:01;19.50;;;10.38;;
31798;SDS011;18374;51.136;3.502;2023-02-11T06:19:29;22.10;;;10.60;;
31798;SDS011;18374;51.136;3.502;2023-02-11T06:21:57;21.60;;;10.38;;
31798;SDS011;18374;51.136;3.502;2023-02-11T06:24:25;26.77;;;10.73;;
31798;SDS011;18374;51.136;3.502;2023-02-11T06:27:13;30.35;;;11.95;;
31798;SDS011;18374;51.136;3.502;2023-02-11T06:29:40;21.65;;;11.38;;
31798;SDS011;18374;51.136;3.502;2023-02-11T06:32:08;25.17;;;11.80;;
31798;SDS011;18374;51.136;3.502;2023-02-11T06:34:55;29.38;;;12.13;;
31798;SDS011;18374;51.136;3.502;2023-02-11T06:37:23;24.60;;;11.30;;
31798;SDS011;18374;51.136;3.502;2023-02-11T06:39:51;22.85;;;11.32;;
31798;SDS011;18374;51.136;3.502;2023-02-11T06:42:19;22.80;;;11.15;;
31798;SDS011;18374;51.136;3.502;2023-02-11T06:44:46;24.30;;;12.07;;
31798;SDS011;18374;51.136;3.502;2023-02-11T06:47:14;23.80;;;11.90;;
31798;SDS011;18374;51.136;3.502;2023-02-11T06:49:42;25.23;;;11.93;;
31798;SDS011;18374;51.136;3.502;2023-02-11T06:52:09;24.08;;;11.82;;
31798;SDS011;18374;51.136;3.502;2023-02-11T06:54:37;30.25;;;12.38;;
31798;SDS011;18374;51.136;3.502;2023-02-11T06:57:05;26.13;;;11.95;;
31798;SDS011;18374;51.136;3.502;2023-02-11T06:59:32;25.52;;;12.73;;
31798;SDS011;18374;51.136;3.502;2023-02-11T07:02:00;25.20;;;11.65;;
31798;SDS011;18374;51.136;3.502;2023-02-11T07:04:28;28.85;;;14.13;;
31798;SDS011;18374;51.136;3.502;2023-02-11T07:06:55;28.20;;;12.82;;
31798;SDS011;18374;51.136;3.502;2023-02-11T07:09:23;26.65;;;12.80;;
31798;SDS011;18374;51.136;3.502;2023-02-11T07:11:51;27.15;;;13.30;;
31798;SDS011;18374;51.136;3.502;2023-02-11T07:14:19;29.67;;;13.35;;
31798;SDS011;18374;51.136;3.502;2023-02-11T07:16:46;26.05;;;13.05;;
31798;SDS011;18374;51.136;3.502;2023-02-11T07:19:14;31.30;;;14.45;;
31798;SDS011;18374;51.136;3.502;2023-02-11T07:21:42;29.50;;;13.10;;
31798;SDS011;18374;51.136;3.502;2023-02-11T07:24:09;32.60;;;14.60;;
31798;SDS011;18374;51.136;3.502;2023-02-11T07:26:37;32.00;;;14.77;;
31798;SDS011;18374;51.136;3.502;2023-02-11T07:29:05;32.83;;;15.70;;
31798;SDS011;18374;51.136;3.502;2023-02-11T07:31:33;32.40;;;15.55;;
31798;SDS011;18374;51.136;3.502;2023-02-11T07:34:01;36.78;;;16.67;;
31798;SDS011;18374;51.136;3.502;2023-02-11T07:36:29;37.22;;;16.50;;
31798;SDS011;18374;51.136;3.502;2023-02-11T07:38:58;43.17;;;17.60;;
31798;SDS011;18374;51.136;3.502;2023-02-11T07:41:26;55.38;;;19.75;;
31798;SDS011;18374;51.136;3.502;2023-02-11T07:43:54;56.05;;;20.30;;
31798;SDS011;18374;51.136;3.502;2023-02-11T07:46:23;45.00;;;20.02;;
31798;SDS011;18374;51.136;3.502;2023-02-11T07:48:53;45.78;;;19.60;;
31798;SDS011;18374;51.136;3.502;2023-02-11T07:51:22;46.22;;;19.33;;
31798;SDS011;18374;51.136;3.502;2023-02-11T07:53:54;42.42;;;17.73;;
31798;SDS011;18374;51.136;3.502;2023-02-11T07:56:24;45.65;;;19.63;;
31798;SDS011;18374;51.136;3.502;2023-02-11T07:58:52;52.22;;;21.08;;
31798;SDS011;18374;51.136;3.502;2023-02-11T08:01:22;40.72;;;20.10;;
31798;SDS011;18374;51.136;3.502;2023-02-11T08:03:55;45.53;;;20.80;;
31798;SDS011;18374;51.136;3.502;2023-02-11T08:06:25;54.38;;;22.33;;
31798;SDS011;18374;51.136;3.502;2023-02-11T08:08:56;53.35;;;22.25;;
31798;SDS011;18374;51.136;3.502;2023-02-11T08:11:25;66.10;;;24.27;;
31798;SDS011;18374;51.136;3.502;2023-02-11T08:13:54;62.50;;;25.52;;
31798;SDS011;18374;51.136;3.502;2023-02-11T08:16:24;58.03;;;24.35;;
31798;SDS011;18374;51.136;3.502;2023-02-11T08:18:52;61.47;;;25.10;;
31798;SDS011;18374;51.136;3.502;2023-02-11T08:21:23;60.03;;;24.80;;
31798;SDS011;18374;51.136;3.502;2023-02-11T08:23:52;64.63;;;25.13;;
31798;SDS011;18374;51.136;3.502;2023-02-11T08:26:21;58.88;;;24.75;;
31798;SDS011;18374;51.136;3.502;2023-02-11T08:28:55;71.70;;;28.23;;
31798;SDS011;18374;51.136;3.502;2023-02-11T08:31:25;76.88;;;27.98;;
31798;SDS011;18374;51.136;3.502;2023-02-11T08:33:59;74.63;;;27.98;;
31798;SDS011;18374;51.136;3.502;2023-02-11T08:36:29;74.47;;;28.15;;
31798;SDS011;18374;51.136;3.502;2023-02-11T08:39:01;83.70;;;29.23;;
31798;SDS011;18374;51.136;3.502;2023-02-11T08:41:49;67.75;;;28.33;;
31798;SDS011;18374;51.136;3.502;2023-02-11T08:44:19;80.03;;;27.88;;
31798;SDS011;18374;51.136;3.502;2023-02-11T08:46:48;79.80;;;28.13;;
31798;SDS011;18374;51.136;3.502;2023-02-11T08:49:17;80.05;;;28.90;;
31798;SDS011;18374;51.136;3.502;2023-02-11T08:51:45;78.72;;;28.90;;
31798;SDS011;18374;51.136;3.502;2023-02-11T08:54:14;68.57;;;28.48;;
31798;SDS011;18374;51.136;3.502;2023-02-11T08:56:42;78.15;;;29.02;;
31798;SDS011;18374;51.136;3.502;2023-02-11T08:59:12;77.10;;;28.63;;
31798;SDS011;18374;51.136;3.502;2023-02-11T09:01:41;73.75;;;27.15;;
31798;SDS011;18374;51.136;3.502;2023-02-11T09:04:10;76.15;;;27.90;;
31798;SDS011;18374;51.136;3.502;2023-02-11T09:06:38;80.15;;;29.55;;
31798;SDS011;18374;51.136;3.502;2023-02-11T09:09:08;82.18;;;28.25;;
31798;SDS011;18374;51.136;3.502;2023-02-11T09:11:39;78.28;;;29.73;;
31798;SDS011;18374;51.136;3.502;2023-02-11T09:14:13;72.85;;;28.30;;
31798;SDS011;18374;51.136;3.502;2023-02-11T09:16:45;75.28;;;28.45;;
31798;SDS011;18374;51.136;3.502;2023-02-11T09:19:13;75.63;;;28.38;;
31798;SDS011;18374;51.136;3.502;2023-02-11T09:21:41;75.63;;;28.73;;
31798;SDS011;18374;51.136;3.502;2023-02-11T09:24:09;80.10;;;28.73;;
31798;SDS011;18374;51.136;3.502;2023-02-11T09:26:37;76.63;;;29.00;;
31798;SDS011;18374;51.136;3.502;2023-02-11T09:29:08;78.22;;;28.60;;
31798;SDS011;18374;51.136;3.502;2023-02-11T09:31:36;80.30;;;29.95;;
31798;SDS011;18374;51.136;3.502;2023-02-11T09:34:05;90.63;;;29.95;;
31798;SDS011;18374;51.136;3.502;2023-02-11T09:36:34;72.70;;;28.00;;
31798;SDS011;18374;51.136;3.502;2023-02-11T09:39:05;73.03;;;29.52;;
31798;SDS011;18374;51.136;3.502;2023-02-11T09:44:29;83.47;;;29.42;;
31798;SDS011;18374;51.136;3.502;2023-02-11T09:47:01;73.40;;;29.23;;
31798;SDS011;18374;51.136;3.502;2023-02-11T09:49:49;77.68;;;29.75;;
31798;SDS011;18374;51.136;3.502;2023-02-11T09:55:29;64.50;;;27.35;;
31798;SDS011;18374;51.136;3.502;2023-02-11T10:07:41;64.20;;;25.98;;
31798;SDS011;18374;51.136;3.502;2023-02-11T10:24:34;64.38;;;25.95;;
31798;SDS011;18374;51.136;3.502;2023-02-11T10:27:07;58.55;;;25.63;;
31798;SDS011;18374;51.136;3.502;2023-02-11T10:29:56;60.40;;;26.05;;
31798;SDS011;18374;51.136;3.502;2023-02-11T10:35:39;61.03;;;24.80;;
31798;SDS011;18374;51.136;3.502;2023-02-11T10:38:10;66.32;;;25.08;;
31798;SDS011;18374;51.136;3.502;2023-02-11T10:40:38;60.72;;;23.67;;
31798;SDS011;18374;51.136;3.502;2023-02-11T10:43:10;49.08;;;22.65;;
31798;SDS011;18374;51.136;3.502;2023-02-11T10:45:42;54.70;;;24.30;;
31798;SDS011;18374;51.136;3.502;2023-02-11T10:56:35;47.20;;;21.30;;
31798;SDS011;18374;51.136;3.502;2023-02-11T10:59:15;54.78;;;22.85;;
31798;SDS011;18374;51.136;3.502;2023-02-11T11:01:48;50.03;;;22.92;;
31798;SDS011;18374;51.136;3.502;2023-02-11T11:07:15;55.22;;;23.63;;
31798;SDS011;18374;51.136;3.502;2023-02-11T11:10:36;49.50;;;22.52;;
31798;SDS011;18374;51.136;3.502;2023-02-11T11:13:02;48.72;;;23.08;;
31798;SDS011;18374;51.136;3.502;2023-02-11T11:15:30;46.60;;;21.27;;
31798;SDS011;18374;51.136;3.502;2023-02-11T11:18:09;43.90;;;22.23;;
31798;SDS011;18374;51.136;3.502;2023-02-11T11:20:56;47.92;;;21.13;;
31798;SDS011;18374;51.136;3.502;2023-02-11T11:23:30;41.63;;;20.48;;
31798;SDS011;18374;51.136;3.502;2023-02-11T11:26:09;40.72;;;20.35;;
31798;SDS011;18374;51.136;3.502;2023-02-11T11:28:49;42.53;;;21.17;;
31798;SDS011;18374;51.136;3.502;2023-02-11T11:31:35;43.75;;;21.15;;
31798;SDS011;18374;51.136;3.502;2023-02-11T11:34:26;46.22;;;20.95;;
31798;SDS011;18374;51.136;3.502;2023-02-11T11:36:58;45.53;;;19.85;;
31798;SDS011;18374;51.136;3.502;2023-02-11T11:39:37;41.97;;;19.88;;
31798;SDS011;18374;51.136;3.502;2023-02-11T11:45:50;43.80;;;20.08;;
31798;SDS011;18374;51.136;3.502;2023-02-11T11:50:55;44.42;;;19.25;;
31798;SDS011;18374;51.136;3.502;2023-02-11T11:53:28;39.67;;;19.30;;
31798;SDS011;18374;51.136;3.502;2023-02-11T11:56:21;39.70;;;18.85;;
31798;SDS011;18374;51.136;3.502;2023-02-11T11:58:53;38.53;;;18.60;;
31798;SDS011;18374;51.136;3.502;2023-02-11T12:10:01;39.97;;;18.75;;
31798;SDS011;18374;51.136;3.502;2023-02-11T12:13:14;41.20;;;18.65;;
31798;SDS011;18374;51.136;3.502;2023-02-11T12:18:29;40.30;;;19.45;;
31798;SDS011;18374;51.136;3.502;2023-02-11T12:21:39;37.53;;;17.80;;
31798;SDS011;18374;51.136;3.502;2023-02-11T12:30:38;39.33;;;18.95;;
31798;SDS011;18374;51.136;3.502;2023-02-11T12:39:47;36.65;;;17.55;;
31798;SDS011;18374;51.136;3.502;2023-02-11T12:45:52;33.38;;;17.30;;
31798;SDS011;18374;51.136;3.502;2023-02-11T12:59:33;37.88;;;18.02;;
31798;SDS011;18374;51.136;3.502;2023-02-11T13:02:17;34.58;;;16.65;;
31798;SDS011;18374;51.136;3.502;2023-02-11T13:05:00;34.97;;;17.75;;
31798;SDS011;18374;51.136;3.502;2023-02-11T13:10:54;34.22;;;17.00;;
31798;SDS011;18374;51.136;3.502;2023-02-11T13:22:22;30.83;;;15.95;;
31798;SDS011;18374;51.136;3.502;2023-02-11T13:32:09;35.00;;;15.57;;
31798;SDS011;18374;51.136;3.502;2023-02-11T13:37:29;32.80;;;14.73;;
31798;SDS011;18374;51.136;3.502;2023-02-11T13:42:35;32.83;;;14.43;;
31798;SDS011;18374;51.136;3.502;2023-02-11T13:48:20;29.13;;;14.20;;
31798;SDS011;18374;51.136;3.502;2023-02-11T13:50:55;26.08;;;13.77;;
31798;SDS011;18374;51.136;3.502;2023-02-11T13:53:27;26.13;;;14.07;;
31798;SDS011;18374;51.136;3.502;2023-02-11T13:56:07;28.80;;;14.40;;
31798;SDS011;18374;51.136;3.502;2023-02-11T13:58:57;31.35;;;15.13;;
31798;SDS011;18374;51.136;3.502;2023-02-11T14:02:00;27.23;;;13.80;;
31798;SDS011;18374;51.136;3.502;2023-02-11T14:13:34;26.08;;;14.15;;
31798;SDS011;18374;51.136;3.502;2023-02-11T14:16:23;26.10;;;13.25;;
31798;SDS011;18374;51.136;3.502;2023-02-11T14:19:04;25.63;;;12.65;;
31798;SDS011;18374;51.136;3.502;2023-02-11T14:21:36;25.23;;;13.60;;
31798;SDS011;18374;51.136;3.502;2023-02-11T14:26:48;26.95;;;13.88;;
31798;SDS011;18374;51.136;3.502;2023-02-11T14:29:35;29.33;;;13.68;;
31798;SDS011;18374;51.136;3.502;2023-02-11T14:32:30;28.58;;;14.50;;
31798;SDS011;18374;51.136;3.502;2023-02-11T14:39:01;27.27;;;13.43;;
31798;SDS011;18374;51.136;3.502;2023-02-11T14:41:42;24.88;;;13.75;;
31798;SDS011;18374;51.136;3.502;2023-02-11T14:44:15;30.67;;;13.65;;
31798;SDS011;18374;51.136;3.502;2023-02-11T14:46:51;27.55;;;13.95;;
31798;SDS011;18374;51.136;3.502;2023-02-11T14:49:28;24.10;;;13.55;;
31798;SDS011;18374;51.136;3.502;2023-02-11T14:54:55;25.75;;;12.80;;
31798;SDS011;18374;51.136;3.502;2023-02-11T14:57:33;29.88;;;12.75;;
31798;SDS011;18374;51.136;3.502;2023-02-11T15:00:03;26.75;;;13.23;;
31798;SDS011;18374;51.136;3.502;2023-02-11T15:02:42;23.58;;;13.48;;
31798;SDS011;18374;51.136;3.502;2023-02-11T15:05:16;23.88;;;12.93;;
31798;SDS011;18374;51.136;3.502;2023-02-11T15:07:56;24.67;;;13.13;;
31798;SDS011;18374;51.136;3.502;2023-02-11T15:10:35;27.67;;;13.43;;
31798;SDS011;18374;51.136;3.502;2023-02-11T15:13:13;25.95;;;12.65;;
31798;SDS011;18374;51.136;3.502;2023-02-11T15:15:46;29.92;;;13.27;;
31798;SDS011;18374;51.136;3.502;2023-02-11T15:18:18;22.45;;;12.23;;
31798;SDS011;18374;51.136;3.502;2023-02-11T15:20:50;24.60;;;12.23;;
31798;SDS011;18374;51.136;3.502;2023-02-11T15:23:22;24.52;;;12.45;;
31798;SDS011;18374;51.136;3.502;2023-02-11T15:25:53;22.95;;;12.43;;
31798;SDS011;18374;51.136;3.502;2023-02-11T15:28:25;25.08;;;12.63;;
31798;SDS011;18374;51.136;3.502;2023-02-11T15:31:02;23.30;;;11.60;;
31798;SDS011;18374;51.136;3.502;2023-02-11T15:33:40;28.23;;;13.07;;
31798;SDS011;18374;51.136;3.502;2023-02-11T15:36:09;24.73;;;12.73;;
31798;SDS011;18374;51.136;3.502;2023-02-11T15:38:39;24.15;;;12.75;;
31798;SDS011;18374;51.136;3.502;2023-02-11T15:41:26;30.17;;;13.35;;
31798;SDS011;18374;51.136;3.502;2023-02-11T15:44:03;26.33;;;12.55;;
31798;SDS011;18374;51.136;3.502;2023-02-11T15:46:37;24.38;;;12.30;;
31798;SDS011;18374;51.136;3.502;2023-02-11T15:49:12;25.55;;;12.20;;
31798;SDS011;18374;51.136;3.502;2023-02-11T15:51:45;28.23;;;11.98;;
31798;SDS011;18374;51.136;3.502;2023-02-11T15:54:20;24.65;;;12.73;;
31798;SDS011;18374;51.136;3.502;2023-02-11T15:57:02;26.48;;;12.75;;
31798;SDS011;18374;51.136;3.502;2023-02-11T15:59:38;22.17;;;12.32;;
31798;SDS011;18374;51.136;3.502;2023-02-11T16:05:04;25.85;;;13.55;;
31798;SDS011;18374;51.136;3.502;2023-02-11T16:12:53;23.48;;;11.52;;
31798;SDS011;18374;51.136;3.502;2023-02-11T16:21:12;26.33;;;12.07;;
31798;SDS011;18374;51.136;3.502;2023-02-11T16:23:47;23.48;;;12.75;;
31798;SDS011;18374;51.136;3.502;2023-02-11T16:26:20;30.17;;;12.30;;
31798;SDS011;18374;51.136;3.502;2023-02-11T16:29:18;24.98;;;12.18;;
31798;SDS011;18374;51.136;3.502;2023-02-11T16:31:52;26.00;;;12.77;;
31798;SDS011;18374;51.136;3.502;2023-02-11T16:34:32;31.95;;;13.85;;
31798;SDS011;18374;51.136;3.502;2023-02-11T16:37:01;25.40;;;13.50;;
31798;SDS011;18374;51.136;3.502;2023-02-11T16:39:31;26.00;;;12.95;;
31798;SDS011;18374;51.136;3.502;2023-02-11T16:41:59;24.27;;;12.80;;
31798;SDS011;18374;51.136;3.502;2023-02-11T16:44:28;25.58;;;13.35;;
31798;SDS011;18374;51.136;3.502;2023-02-11T16:46:59;22.88;;;12.85;;
31798;SDS011;18374;51.136;3.502;2023-02-11T16:49:36;26.45;;;13.25;;
31798;SDS011;18374;51.136;3.502;2023-02-11T16:52:08;27.10;;;14.18;;
31798;SDS011;18374;51.136;3.502;2023-02-11T16:54:40;32.40;;;16.52;;
31798;SDS011;18374;51.136;3.502;2023-02-11T16:57:42;33.15;;;16.30;;
31798;SDS011;18374;51.136;3.502;2023-02-11T17:00:03;33.05;;;16.58;;
31798;SDS011;18374;51.136;3.502;2023-02-11T17:02:33;28.48;;;15.75;;
31798;SDS011;18374;51.136;3.502;2023-02-11T17:05:04;30.80;;;15.70;;
31798;SDS011;18374;51.136;3.502;2023-02-11T17:07:37;26.92;;;15.00;;
31798;SDS011;18374;51.136;3.502;2023-02-11T17:10:26;29.35;;;13.80;;
31798;SDS011;18374;51.136;3.502;2023-02-11T17:12:53;25.70;;;13.68;;
31798;SDS011;18374;51.136;3.502;2023-02-11T17:15:21;26.80;;;14.30;;
31798;SDS011;18374;51.136;3.502;2023-02-11T17:17:48;29.63;;;14.45;;
31798;SDS011;18374;51.136;3.502;2023-02-11T17:20:16;32.80;;;17.27;;
31798;SDS011;18374;51.136;3.502;2023-02-11T17:22:44;34.00;;;16.27;;
31798;SDS011;18374;51.136;3.502;2023-02-11T17:25:12;33.10;;;16.23;;
31798;SDS011;18374;51.136;3.502;2023-02-11T17:27:40;33.72;;;16.13;;
31798;SDS011;18374;51.136;3.502;2023-02-11T17:30:08;28.35;;;16.23;;
31798;SDS011;18374;51.136;3.502;2023-02-11T17:32:37;30.75;;;15.50;;
31798;SDS011;18374;51.136;3.502;2023-02-11T17:35:05;34.00;;;16.08;;
31798;SDS011;18374;51.136;3.502;2023-02-11T17:37:33;40.90;;;19.50;;
31798;SDS011;18374;51.136;3.502;2023-02-11T17:40:01;35.78;;;18.15;;
31798;SDS011;18374;51.136;3.502;2023-02-11T17:42:29;36.95;;;16.90;;
31798;SDS011;18374;51.136;3.502;2023-02-11T17:44:57;35.70;;;17.30;;
31798;SDS011;18374;51.136;3.502;2023-02-11T17:47:24;29.10;;;16.27;;
31798;SDS011;18374;51.136;3.502;2023-02-11T17:49:52;29.77;;;16.25;;
31798;SDS011;18374;51.136;3.502;2023-02-11T17:52:20;34.53;;;16.60;;
31798;SDS011;18374;51.136;3.502;2023-02-11T17:54:50;30.58;;;16.48;;
31798;SDS011;18374;51.136;3.502;2023-02-11T17:57:17;28.85;;;16.45;;
31798;SDS011;18374;51.136;3.502;2023-02-11T17:59:46;31.02;;;16.25;;
31798;SDS011;18374;51.136;3.502;2023-02-11T18:02:13;33.63;;;17.27;;